sensor_id;sensor_type;location;lat;lon;timestamp;temperature;humidity
13686;DHT22;6915;48.296;8.874;2023-12-20T00:00:58;5.60;99.90
13686;DHT22;6915;48.296;8.874;2023-12-20T00:03:25;5.60;99.90
13686;DHT22;6915;48.296;8.874;2023-12-20T00:05:52;5.80;99.90
13686;DHT22;6915;48.296;8.874;2023-12-20T00:08:19;5.60;99.90
13686;DHT22;6915;48.296;8.874;2023-12-20T00:10:47;5.60;99.90
13686;DHT22;6915;48.296;8.874;2023-12-20T00:13:14;5.60;99.90
13686;DHT22;6915;48.296;8.874;2023-12-20T00:15:40;5.60;99.90
13686;DHT22;6915;48.296;8.874;2023-12-20T00:18:07;5.80;99.90
13686;DHT22;6915;48.296;8.874;2023-12-20T00:20:34;5.70;99.90
13686;DHT22;6915;48.296;8.874;2023-12-20T00:23:01;5.70;99.90
13686;DHT22;6915;48.296;8.874;2023-12-20T00:25:28;5.60;99.90
13686;DHT22;6915;48.296;8.874;2023-12-20T00:27:56;5.70;99.90
13686;DHT22;6915;48.296;8.874;2023-12-20T00:30:23;5.60;99.90
13686;DHT22;6915;48.296;8.874;2023-12-20T00:32:50;5.60;99.90
13686;DHT22;6915;48.296;8.874;2023-12-20T00:35:17;5.60;99.90
13686;DHT22;6915;48.296;8.874;2023-12-20T00:37:44;5.60;99.90
13686;DHT22;6915;48.296;8.874;2023-12-20T00:40:11;5.70;99.90
13686;DHT22;6915;48.296;8.874;2023-12-20T00:42:38;5.70;99.90
13686;DHT22;6915;48.296;8.874;2023-12-20T00:45:07;5.70;99.90
13686;DHT22;6915;48.296;8.874;2023-12-20T00:47:34;5.70;99.90
13686;DHT22;6915;48.296;8.874;2023-12-20T00:50:01;5.80;99.90
13686;DHT22;6915;48.296;8.874;2023-12-20T00:52:28;5.80;99.90
13686;DHT22;6915;48.296;8.874;2023-12-20T00:54:55;5.80;99.90
13686;DHT22;6915;48.296;8.874;2023-12-20T00:57:22;5.80;99.90
13686;DHT22;6915;48.296;8.874;2023-12-20T00:59:49;5.80;99.90
13686;DHT22;6915;48.296;8.874;2023-12-20T01:02:17;5.80;99.90
13686;DHT22;6915;48.296;8.874;2023-12-20T01:04:44;5.80;99.90
13686;DHT22;6915;48.296;8.874;2023-12-20T01:07:12;5.80;99.90
13686;DHT22;6915;48.296;8.874;2023-12-20T01:09:39;5.90;99.90
13686;DHT22;6915;48.296;8.874;2023-12-20T01:12:06;5.90;99.90
13686;DHT22;6915;48.296;8.874;2023-12-20T01:14:32;5.90;99.90
13686;DHT22;6915;48.296;8.874;2023-12-20T01:16:59;5.80;99.90
13686;DHT22;6915;48.296;8.874;2023-12-20T01:19:28;5.80;99.90
13686;DHT22;6915;48.296;8.874;2023-12-20T01:21:55;5.80;99.90
13686;DHT22;6915;48.296;8.874;2023-12-20T01:24:22;5.60;99.90
13686;DHT22;6915;48.296;8.874;2023-12-20T01:26:49;5.80;99.90
13686;DHT22;6915;48.296;8.874;2023-12-20T01:29:16;5.60;99.90
13686;DHT22;6915;48.296;8.874;2023-12-20T01:31:43;5.50;99.90
13686;DHT22;6915;48.296;8.874;2023-12-20T01:34:09;5.50;99.90
13686;DHT22;6915;48.296;8.874;2023-12-20T01:36:38;5.40;99.90
13686;DHT22;6915;48.296;8.874;2023-12-20T01:39:05;5.50;99.90
13686;DHT22;6915;48.296;8.874;2023-12-20T01:41:31;5.40;99.90
13686;DHT22;6915;48.296;8.874;2023-12-20T01:43:58;5.50;99.90
13686;DHT22;6915;48.296;8.874;2023-12-20T01:46:25;5.30;99.90
13686;DHT22;6915;48.296;8.874;2023-12-20T01:48:53;5.20;99.90
13686;DHT22;6915;48.296;8.874;2023-12-20T01:51:21;5.30;99.90
13686;DHT22;6915;48.296;8.874;2023-12-20T01:53:49;5.20;99.90
13686;DHT22;6915;48.296;8.874;2023-12-20T01:56:16;5.20;99.90
13686;DHT22;6915;48.296;8.874;2023-12-20T01:58:45;5.10;99.90
13686;DHT22;6915;48.296;8.874;2023-12-20T02:01:13;5.10;99.90
13686;DHT22;6915;48.296;8.874;2023-12-20T02:03:40;5.00;99.90
13686;DHT22;6915;48.296;8.874;2023-12-20T02:06:08;4.90;99.90
13686;DHT22;6915;48.296;8.874;2023-12-20T02:08:36;5.00;99.90
13686;DHT22;6915;48.296;8.874;2023-12-20T02:11:04;4.90;99.90
13686;DHT22;6915;48.296;8.874;2023-12-20T02:13:31;4.90;99.90
13686;DHT22;6915;48.296;8.874;2023-12-20T02:15:58;4.90;99.90
13686;DHT22;6915;48.296;8.874;2023-12-20T02:18:25;4.90;99.90
13686;DHT22;6915;48.296;8.874;2023-12-20T02:20:52;4.90;99.90
13686;DHT22;6915;48.296;8.874;2023-12-20T02:23:21;4.90;99.90
13686;DHT22;6915;48.296;8.874;2023-12-20T02:25:48;4.80;99.90
13686;DHT22;6915;48.296;8.874;2023-12-20T02:28:15;4.90;99.90
13686;DHT22;6915;48.296;8.874;2023-12-20T02:30:42;4.70;99.90
13686;DHT22;6915;48.296;8.874;2023-12-20T02:33:11;4.90;99.90
13686;DHT22;6915;48.296;8.874;2023-12-20T02:35:38;5.00;99.90
13686;DHT22;6915;48.296;8.874;2023-12-20T02:38:05;4.80;99.90
13686;DHT22;6915;48.296;8.874;2023-12-20T02:40:34;4.80;99.90
13686;DHT22;6915;48.296;8.874;2023-12-20T02:43:00;4.80;99.90
13686;DHT22;6915;48.296;8.874;2023-12-20T02:45:27;4.80;99.90
13686;DHT22;6915;48.296;8.874;2023-12-20T02:47:54;4.80;99.90
13686;DHT22;6915;48.296;8.874;2023-12-20T02:50:21;4.80;99.90
13686;DHT22;6915;48.296;8.874;2023-12-20T02:52:48;5.10;99.90
13686;DHT22;6915;48.296;8.874;2023-12-20T02:55:15;4.80;99.90
13686;DHT22;6915;48.296;8.874;2023-12-20T02:57:43;4.90;99.90
13686;DHT22;6915;48.296;8.874;2023-12-20T03:00:11;5.00;99.90
13686;DHT22;6915;48.296;8.874;2023-12-20T03:02:37;4.90;99.90
13686;DHT22;6915;48.296;8.874;2023-12-20T03:05:05;5.20;99.90
13686;DHT22;6915;48.296;8.874;2023-12-20T03:07:32;5.00;99.90
13686;DHT22;6915;48.296;8.874;2023-12-20T03:09:59;4.90;99.90
13686;DHT22;6915;48.296;8.874;2023-12-20T03:12:26;5.20;99.90
13686;DHT22;6915;48.296;8.874;2023-12-20T03:14:54;5.00;99.90
13686;DHT22;6915;48.296;8.874;2023-12-20T03:17:21;5.00;99.90
13686;DHT22;6915;48.296;8.874;2023-12-20T03:19:48;5.00;99.90
13686;DHT22;6915;48.296;8.874;2023-12-20T03:22:15;5.00;99.90
13686;DHT22;6915;48.296;8.874;2023-12-20T03:24:41;5.00;99.90
13686;DHT22;6915;48.296;8.874;2023-12-20T03:27:08;4.90;99.90
13686;DHT22;6915;48.296;8.874;2023-12-20T03:29:35;4.90;99.90
13686;DHT22;6915;48.296;8.874;2023-12-20T03:32:04;5.10;99.90
13686;DHT22;6915;48.296;8.874;2023-12-20T03:34:31;4.90;99.90
13686;DHT22;6915;48.296;8.874;2023-12-20T03:36:57;5.10;99.90
13686;DHT22;6915;48.296;8.874;2023-12-20T03:39:24;4.90;99.90
13686;DHT22;6915;48.296;8.874;2023-12-20T03:41:51;4.90;99.90
13686;DHT22;6915;48.296;8.874;2023-12-20T03:44:18;4.80;99.90
13686;DHT22;6915;48.296;8.874;2023-12-20T03:46:46;4.80;99.90
13686;DHT22;6915;48.296;8.874;2023-12-20T03:49:16;4.80;99.90
13686;DHT22;6915;48.296;8.874;2023-12-20T03:51:42;4.80;99.90
13686;DHT22;6915;48.296;8.874;2023-12-20T03:54:09;4.80;99.90
13686;DHT22;6915;48.296;8.874;2023-12-20T03:56:36;4.70;99.90
13686;DHT22;6915;48.296;8.874;2023-12-20T03:59:03;4.70;99.90
13686;DHT22;6915;48.296;8.874;2023-12-20T04:01:30;4.60;99.90
13686;DHT22;6915;48.296;8.874;2023-12-20T04:03:57;4.70;99.90
13686;DHT22;6915;48.296;8.874;2023-12-20T04:06:25;4.60;99.90
13686;DHT22;6915;48.296;8.874;2023-12-20T04:08:52;4.70;99.90
13686;DHT22;6915;48.296;8.874;2023-12-20T04:11:19;4.60;99.90
13686;DHT22;6915;48.296;8.874;2023-12-20T04:13:46;4.60;99.90
13686;DHT22;6915;48.296;8.874;2023-12-20T04:16:13;4.80;99.90
13686;DHT22;6915;48.296;8.874;2023-12-20T04:18:40;4.60;99.90
13686;DHT22;6915;48.296;8.874;2023-12-20T04:21:07;4.60;99.90
13686;DHT22;6915;48.296;8.874;2023-12-20T04:23:35;4.50;99.90
13686;DHT22;6915;48.296;8.874;2023-12-20T04:26:02;4.50;99.90
13686;DHT22;6915;48.296;8.874;2023-12-20T04:28:29;4.50;99.90
13686;DHT22;6915;48.296;8.874;2023-12-20T04:30:56;4.50;99.90
13686;DHT22;6915;48.296;8.874;2023-12-20T04:33:23;4.40;99.90
13686;DHT22;6915;48.296;8.874;2023-12-20T04:35:50;4.40;99.90
13686;DHT22;6915;48.296;8.874;2023-12-20T04:38:17;4.40;99.90
13686;DHT22;6915;48.296;8.874;2023-12-20T04:40:45;4.50;99.90
13686;DHT22;6915;48.296;8.874;2023-12-20T04:43:13;4.50;99.90
13686;DHT22;6915;48.296;8.874;2023-12-20T04:45:40;4.30;99.90
13686;DHT22;6915;48.296;8.874;2023-12-20T04:48:07;4.40;99.90
13686;DHT22;6915;48.296;8.874;2023-12-20T04:50:34;4.30;99.90
13686;DHT22;6915;48.296;8.874;2023-12-20T04:53:01;4.30;99.90
13686;DHT22;6915;48.296;8.874;2023-12-20T04:55:28;4.30;99.90
13686;DHT22;6915;48.296;8.874;2023-12-20T04:57:56;4.30;99.90
13686;DHT22;6915;48.296;8.874;2023-12-20T05:00:23;4.30;99.90
13686;DHT22;6915;48.296;8.874;2023-12-20T05:02:50;4.30;99.90
13686;DHT22;6915;48.296;8.874;2023-12-20T05:05:17;4.20;99.90
13686;DHT22;6915;48.296;8.874;2023-12-20T05:07:44;4.30;99.90
13686;DHT22;6915;48.296;8.874;2023-12-20T05:10:11;4.30;99.90
13686;DHT22;6915;48.296;8.874;2023-12-20T05:12:38;4.20;99.90
13686;DHT22;6915;48.296;8.874;2023-12-20T05:15:08;4.30;99.90
13686;DHT22;6915;48.296;8.874;2023-12-20T05:17:34;4.20;99.90
13686;DHT22;6915;48.296;8.874;2023-12-20T05:20:01;4.20;99.90
13686;DHT22;6915;48.296;8.874;2023-12-20T05:22:28;4.20;99.90
13686;DHT22;6915;48.296;8.874;2023-12-20T05:24:55;4.30;99.90
13686;DHT22;6915;48.296;8.874;2023-12-20T05:27:22;4.30;99.90
13686;DHT22;6915;48.296;8.874;2023-12-20T05:29:49;4.30;99.90
13686;DHT22;6915;48.296;8.874;2023-12-20T05:32:17;4.30;99.90
13686;DHT22;6915;48.296;8.874;2023-12-20T05:34:44;4.30;99.90
13686;DHT22;6915;48.296;8.874;2023-12-20T05:37:11;4.30;99.90
13686;DHT22;6915;48.296;8.874;2023-12-20T05:39:38;4.30;99.90
13686;DHT22;6915;48.296;8.874;2023-12-20T05:42:05;4.20;99.90
13686;DHT22;6915;48.296;8.874;2023-12-20T05:44:32;4.20;99.90
13686;DHT22;6915;48.296;8.874;2023-12-20T05:46:59;4.30;99.90
13686;DHT22;6915;48.296;8.874;2023-12-20T05:49:27;4.20;99.90
13686;DHT22;6915;48.296;8.874;2023-12-20T05:51:54;4.30;99.90
13686;DHT22;6915;48.296;8.874;2023-12-20T05:54:20;4.30;99.90
13686;DHT22;6915;48.296;8.874;2023-12-20T05:56:48;4.50;99.90
13686;DHT22;6915;48.296;8.874;2023-12-20T05:59:16;4.30;99.90
13686;DHT22;6915;48.296;8.874;2023-12-20T06:01:43;4.30;99.90
13686;DHT22;6915;48.296;8.874;2023-12-20T06:04:10;4.20;99.90
13686;DHT22;6915;48.296;8.874;2023-12-20T06:06:42;4.40;99.90
13686;DHT22;6915;48.296;8.874;2023-12-20T06:09:08;4.30;99.90
13686;DHT22;6915;48.296;8.874;2023-12-20T06:11:35;4.40;99.90
13686;DHT22;6915;48.296;8.874;2023-12-20T06:14:02;4.30;99.90
13686;DHT22;6915;48.296;8.874;2023-12-20T06:16:29;4.40;99.90
13686;DHT22;6915;48.296;8.874;2023-12-20T06:18:56;4.40;99.90
13686;DHT22;6915;48.296;8.874;2023-12-20T06:21:23;4.40;99.90
13686;DHT22;6915;48.296;8.874;2023-12-20T06:23:51;4.30;99.90
13686;DHT22;6915;48.296;8.874;2023-12-20T06:26:18;4.30;99.90
13686;DHT22;6915;48.296;8.874;2023-12-20T06:28:45;4.30;99.90
13686;DHT22;6915;48.296;8.874;2023-12-20T06:31:12;4.30;99.90
13686;DHT22;6915;48.296;8.874;2023-12-20T06:33:39;4.40;99.90
13686;DHT22;6915;48.296;8.874;2023-12-20T06:36:07;4.30;99.90
13686;DHT22;6915;48.296;8.874;2023-12-20T06:38:34;4.30;99.90
13686;DHT22;6915;48.296;8.874;2023-12-20T06:41:03;4.30;99.90
13686;DHT22;6915;48.296;8.874;2023-12-20T06:43:29;4.30;99.90
13686;DHT22;6915;48.296;8.874;2023-12-20T06:45:57;4.30;99.90
13686;DHT22;6915;48.296;8.874;2023-12-20T06:48:24;4.30;99.90
13686;DHT22;6915;48.296;8.874;2023-12-20T06:50:51;4.30;99.90
13686;DHT22;6915;48.296;8.874;2023-12-20T06:53:18;4.20;99.90
13686;DHT22;6915;48.296;8.874;2023-12-20T06:55:45;4.40;99.90
13686;DHT22;6915;48.296;8.874;2023-12-20T06:58:14;4.30;99.90
13686;DHT22;6915;48.296;8.874;2023-12-20T07:00:41;4.30;99.90
13686;DHT22;6915;48.296;8.874;2023-12-20T07:03:09;4.30;99.90
13686;DHT22;6915;48.296;8.874;2023-12-20T07:05:36;4.30;99.90
13686;DHT22;6915;48.296;8.874;2023-12-20T07:08:03;4.20;99.90
13686;DHT22;6915;48.296;8.874;2023-12-20T07:10:30;4.30;99.90
13686;DHT22;6915;48.296;8.874;2023-12-20T07:12:57;4.20;99.90
13686;DHT22;6915;48.296;8.874;2023-12-20T07:15:26;4.30;99.90
13686;DHT22;6915;48.296;8.874;2023-12-20T07:17:55;4.30;99.90
13686;DHT22;6915;48.296;8.874;2023-12-20T07:20:22;4.40;99.90
13686;DHT22;6915;48.296;8.874;2023-12-20T07:22:48;4.30;99.90
13686;DHT22;6915;48.296;8.874;2023-12-20T07:25:16;4.30;99.90
13686;DHT22;6915;48.296;8.874;2023-12-20T07:27:43;4.30;99.90
13686;DHT22;6915;48.296;8.874;2023-12-20T07:30:11;4.30;99.90
13686;DHT22;6915;48.296;8.874;2023-12-20T07:32:39;4.40;99.90
13686;DHT22;6915;48.296;8.874;2023-12-20T07:35:07;4.30;99.90
13686;DHT22;6915;48.296;8.874;2023-12-20T07:37:34;4.40;99.90
13686;DHT22;6915;48.296;8.874;2023-12-20T07:40:01;4.40;99.90
13686;DHT22;6915;48.296;8.874;2023-12-20T07:42:29;4.60;99.90
13686;DHT22;6915;48.296;8.874;2023-12-20T07:44:56;4.40;99.90
13686;DHT22;6915;48.296;8.874;2023-12-20T07:47:22;4.40;99.90
13686;DHT22;6915;48.296;8.874;2023-12-20T07:49:52;4.40;99.90
13686;DHT22;6915;48.296;8.874;2023-12-20T07:52:19;4.50;99.90
13686;DHT22;6915;48.296;8.874;2023-12-20T07:54:47;4.50;99.90
13686;DHT22;6915;48.296;8.874;2023-12-20T07:57:14;4.60;99.90
13686;DHT22;6915;48.296;8.874;2023-12-20T07:59:41;4.60;99.90
13686;DHT22;6915;48.296;8.874;2023-12-20T08:02:09;4.60;99.90
13686;DHT22;6915;48.296;8.874;2023-12-20T08:04:36;4.60;99.90
13686;DHT22;6915;48.296;8.874;2023-12-20T08:07:05;4.60;99.90
13686;DHT22;6915;48.296;8.874;2023-12-20T08:09:31;4.60;99.90
13686;DHT22;6915;48.296;8.874;2023-12-20T08:11:59;4.70;99.90
13686;DHT22;6915;48.296;8.874;2023-12-20T08:14:26;4.60;99.90
13686;DHT22;6915;48.296;8.874;2023-12-20T08:16:53;4.70;99.90
13686;DHT22;6915;48.296;8.874;2023-12-20T08:19:20;4.70;99.90
13686;DHT22;6915;48.296;8.874;2023-12-20T08:21:46;4.70;99.90
13686;DHT22;6915;48.296;8.874;2023-12-20T08:24:15;4.70;99.90
13686;DHT22;6915;48.296;8.874;2023-12-20T08:26:42;4.70;99.90
13686;DHT22;6915;48.296;8.874;2023-12-20T08:29:09;4.70;99.90
13686;DHT22;6915;48.296;8.874;2023-12-20T08:31:35;4.70;99.90
13686;DHT22;6915;48.296;8.874;2023-12-20T08:34:02;4.70;99.90
13686;DHT22;6915;48.296;8.874;2023-12-20T08:36:29;4.70;99.90
13686;DHT22;6915;48.296;8.874;2023-12-20T08:38:56;4.70;99.90
13686;DHT22;6915;48.296;8.874;2023-12-20T08:41:24;4.80;99.90
13686;DHT22;6915;48.296;8.874;2023-12-20T08:43:51;4.70;99.90
13686;DHT22;6915;48.296;8.874;2023-12-20T08:46:18;4.80;99.90
13686;DHT22;6915;48.296;8.874;2023-12-20T08:48:45;4.70;99.90
13686;DHT22;6915;48.296;8.874;2023-12-20T08:51:13;4.70;99.90
13686;DHT22;6915;48.296;8.874;2023-12-20T08:53:40;4.80;99.90
13686;DHT22;6915;48.296;8.874;2023-12-20T08:56:07;4.80;99.90
13686;DHT22;6915;48.296;8.874;2023-12-20T08:58:35;4.80;99.90
13686;DHT22;6915;48.296;8.874;2023-12-20T09:01:02;4.80;99.90
13686;DHT22;6915;48.296;8.874;2023-12-20T09:03:29;4.90;99.90
13686;DHT22;6915;48.296;8.874;2023-12-20T09:05:56;4.90;99.90
13686;DHT22;6915;48.296;8.874;2023-12-20T09:08:23;4.90;99.90
13686;DHT22;6915;48.296;8.874;2023-12-20T09:10:50;5.00;99.90
13686;DHT22;6915;48.296;8.874;2023-12-20T09:13:17;5.00;99.90
13686;DHT22;6915;48.296;8.874;2023-12-20T09:15:46;5.10;99.90
13686;DHT22;6915;48.296;8.874;2023-12-20T09:18:12;4.90;99.90
13686;DHT22;6915;48.296;8.874;2023-12-20T09:20:39;5.00;99.90
13686;DHT22;6915;48.296;8.874;2023-12-20T09:23:06;5.00;99.90
13686;DHT22;6915;48.296;8.874;2023-12-20T09:25:33;4.90;99.90
13686;DHT22;6915;48.296;8.874;2023-12-20T09:28:00;4.90;99.90
13686;DHT22;6915;48.296;8.874;2023-12-20T09:30:27;4.90;99.90
13686;DHT22;6915;48.296;8.874;2023-12-20T09:32:56;4.90;99.90
13686;DHT22;6915;48.296;8.874;2023-12-20T09:35:23;4.90;99.90
13686;DHT22;6915;48.296;8.874;2023-12-20T09:37:51;4.90;99.90
13686;DHT22;6915;48.296;8.874;2023-12-20T09:40:19;4.90;99.90
13686;DHT22;6915;48.296;8.874;2023-12-20T09:42:50;4.90;99.90
13686;DHT22;6915;48.296;8.874;2023-12-20T09:45:22;4.90;99.90
13686;DHT22;6915;48.296;8.874;2023-12-20T09:47:50;4.90;99.90
13686;DHT22;6915;48.296;8.874;2023-12-20T09:50:20;5.10;99.90
13686;DHT22;6915;48.296;8.874;2023-12-20T09:52:50;4.90;99.90
13686;DHT22;6915;48.296;8.874;2023-12-20T09:55:17;4.90;99.90
13686;DHT22;6915;48.296;8.874;2023-12-20T09:57:45;4.70;99.90
13686;DHT22;6915;48.296;8.874;2023-12-20T10:00:13;4.70;99.90
13686;DHT22;6915;48.296;8.874;2023-12-20T10:02:45;4.50;99.90
13686;DHT22;6915;48.296;8.874;2023-12-20T10:05:17;4.40;99.90
13686;DHT22;6915;48.296;8.874;2023-12-20T10:07:47;4.50;99.90
13686;DHT22;6915;48.296;8.874;2023-12-20T10:10:14;4.40;99.90
13686;DHT22;6915;48.296;8.874;2023-12-20T10:12:42;4.60;99.90
13686;DHT22;6915;48.296;8.874;2023-12-20T10:15:27;4.60;99.90
13686;DHT22;6915;48.296;8.874;2023-12-20T10:17:54;4.70;99.90
13686;DHT22;6915;48.296;8.874;2023-12-20T10:20:21;4.60;99.90
13686;DHT22;6915;48.296;8.874;2023-12-20T10:22:49;4.60;99.90
13686;DHT22;6915;48.296;8.874;2023-12-20T10:25:19;4.60;99.90
13686;DHT22;6915;48.296;8.874;2023-12-20T10:27:46;4.40;99.90
13686;DHT22;6915;48.296;8.874;2023-12-20T10:30:13;4.40;99.90
13686;DHT22;6915;48.296;8.874;2023-12-20T10:32:40;4.20;99.90
13686;DHT22;6915;48.296;8.874;2023-12-20T10:35:08;4.30;99.90
13686;DHT22;6915;48.296;8.874;2023-12-20T10:37:35;4.30;99.90
13686;DHT22;6915;48.296;8.874;2023-12-20T10:40:06;4.40;99.90
13686;DHT22;6915;48.296;8.874;2023-12-20T10:42:34;4.60;99.90
13686;DHT22;6915;48.296;8.874;2023-12-20T10:45:03;4.80;99.90
13686;DHT22;6915;48.296;8.874;2023-12-20T10:47:31;4.70;99.90
13686;DHT22;6915;48.296;8.874;2023-12-20T10:49:59;4.60;99.90
13686;DHT22;6915;48.296;8.874;2023-12-20T10:52:28;4.50;99.90
13686;DHT22;6915;48.296;8.874;2023-12-20T10:54:56;4.50;99.90
13686;DHT22;6915;48.296;8.874;2023-12-20T10:57:26;4.50;99.90
13686;DHT22;6915;48.296;8.874;2023-12-20T10:59:54;4.70;99.90
13686;DHT22;6915;48.296;8.874;2023-12-20T11:02:22;4.60;99.90
13686;DHT22;6915;48.296;8.874;2023-12-20T11:04:55;4.70;99.90
13686;DHT22;6915;48.296;8.874;2023-12-20T11:07:29;4.70;99.90
13686;DHT22;6915;48.296;8.874;2023-12-20T11:10:00;4.80;99.90
13686;DHT22;6915;48.296;8.874;2023-12-20T11:12:39;5.00;99.90
13686;DHT22;6915;48.296;8.874;2023-12-20T11:15:10;4.90;99.90
13686;DHT22;6915;48.296;8.874;2023-12-20T11:17:39;5.10;99.90
13686;DHT22;6915;48.296;8.874;2023-12-20T11:20:10;4.80;99.90
13686;DHT22;6915;48.296;8.874;2023-12-20T11:22:38;4.70;99.90
13686;DHT22;6915;48.296;8.874;2023-12-20T11:25:09;4.70;99.90
13686;DHT22;6915;48.296;8.874;2023-12-20T11:27:41;4.50;99.90
13686;DHT22;6915;48.296;8.874;2023-12-20T11:30:09;4.40;99.90
13686;DHT22;6915;48.296;8.874;2023-12-20T11:32:37;4.40;99.90
13686;DHT22;6915;48.296;8.874;2023-12-20T11:35:17;4.50;99.90
13686;DHT22;6915;48.296;8.874;2023-12-20T11:37:45;4.60;99.90
13686;DHT22;6915;48.296;8.874;2023-12-20T11:40:15;4.50;99.90
13686;DHT22;6915;48.296;8.874;2023-12-20T11:42:44;4.70;99.90
13686;DHT22;6915;48.296;8.874;2023-12-20T11:45:14;4.50;99.90
13686;DHT22;6915;48.296;8.874;2023-12-20T11:47:43;4.50;99.90
13686;DHT22;6915;48.296;8.874;2023-12-20T11:50:11;4.60;99.90
13686;DHT22;6915;48.296;8.874;2023-12-20T11:52:38;4.50;99.90
13686;DHT22;6915;48.296;8.874;2023-12-20T11:55:05;4.50;99.90
13686;DHT22;6915;48.296;8.874;2023-12-20T11:57:33;4.40;99.90
13686;DHT22;6915;48.296;8.874;2023-12-20T12:00:02;4.60;99.90
13686;DHT22;6915;48.296;8.874;2023-12-20T12:02:29;4.50;99.90
13686;DHT22;6915;48.296;8.874;2023-12-20T12:04:56;4.50;99.90
13686;DHT22;6915;48.296;8.874;2023-12-20T12:07:24;4.50;99.90
13686;DHT22;6915;48.296;8.874;2023-12-20T12:09:51;4.40;99.90
13686;DHT22;6915;48.296;8.874;2023-12-20T12:12:19;4.40;99.90
13686;DHT22;6915;48.296;8.874;2023-12-20T12:14:46;4.50;99.90
13686;DHT22;6915;48.296;8.874;2023-12-20T12:17:15;4.30;99.90
13686;DHT22;6915;48.296;8.874;2023-12-20T12:19:43;4.30;99.90
13686;DHT22;6915;48.296;8.874;2023-12-20T12:22:11;4.20;99.90
13686;DHT22;6915;48.296;8.874;2023-12-20T12:24:39;4.20;99.90
13686;DHT22;6915;48.296;8.874;2023-12-20T12:27:06;4.30;99.90
13686;DHT22;6915;48.296;8.874;2023-12-20T12:29:34;4.10;99.90
13686;DHT22;6915;48.296;8.874;2023-12-20T12:32:01;4.30;99.90
13686;DHT22;6915;48.296;8.874;2023-12-20T12:34:29;4.00;99.90
13686;DHT22;6915;48.296;8.874;2023-12-20T12:36:56;4.00;99.90
13686;DHT22;6915;48.296;8.874;2023-12-20T12:39:24;4.10;99.90
13686;DHT22;6915;48.296;8.874;2023-12-20T12:41:51;4.10;99.90
13686;DHT22;6915;48.296;8.874;2023-12-20T12:44:19;4.00;99.90
13686;DHT22;6915;48.296;8.874;2023-12-20T12:46:48;3.90;99.90
13686;DHT22;6915;48.296;8.874;2023-12-20T12:49:16;3.90;99.90
13686;DHT22;6915;48.296;8.874;2023-12-20T12:51:44;3.90;99.90
13686;DHT22;6915;48.296;8.874;2023-12-20T12:54:12;3.90;99.90
13686;DHT22;6915;48.296;8.874;2023-12-20T12:56:41;3.90;99.90
13686;DHT22;6915;48.296;8.874;2023-12-20T12:59:08;4.00;99.90
13686;DHT22;6915;48.296;8.874;2023-12-20T13:01:36;3.90;99.90
13686;DHT22;6915;48.296;8.874;2023-12-20T13:04:03;3.90;99.90
13686;DHT22;6915;48.296;8.874;2023-12-20T13:06:36;3.90;99.90
13686;DHT22;6915;48.296;8.874;2023-12-20T13:09:04;3.80;99.90
13686;DHT22;6915;48.296;8.874;2023-12-20T13:11:32;3.70;99.90
13686;DHT22;6915;48.296;8.874;2023-12-20T13:14:00;3.70;99.90
13686;DHT22;6915;48.296;8.874;2023-12-20T13:16:27;3.70;99.90
13686;DHT22;6915;48.296;8.874;2023-12-20T13:18:54;3.70;99.90
13686;DHT22;6915;48.296;8.874;2023-12-20T13:21:21;3.70;99.90
13686;DHT22;6915;48.296;8.874;2023-12-20T13:23:48;3.80;99.90
13686;DHT22;6915;48.296;8.874;2023-12-20T13:26:17;3.70;99.90
13686;DHT22;6915;48.296;8.874;2023-12-20T13:28:44;3.80;99.90
13686;DHT22;6915;48.296;8.874;2023-12-20T13:31:11;3.80;99.90
13686;DHT22;6915;48.296;8.874;2023-12-20T13:33:38;3.80;99.90
13686;DHT22;6915;48.296;8.874;2023-12-20T13:36:06;3.80;99.90
13686;DHT22;6915;48.296;8.874;2023-12-20T13:38:34;3.80;99.90
13686;DHT22;6915;48.296;8.874;2023-12-20T13:41:01;3.80;99.90
13686;DHT22;6915;48.296;8.874;2023-12-20T13:43:30;4.10;99.90
13686;DHT22;6915;48.296;8.874;2023-12-20T13:45:58;3.90;99.90
13686;DHT22;6915;48.296;8.874;2023-12-20T13:48:25;3.80;99.90
13686;DHT22;6915;48.296;8.874;2023-12-20T13:50:52;3.90;99.90
13686;DHT22;6915;48.296;8.874;2023-12-20T13:53:20;3.80;99.90
13686;DHT22;6915;48.296;8.874;2023-12-20T13:55:47;3.90;99.90
13686;DHT22;6915;48.296;8.874;2023-12-20T13:58:15;3.80;99.90
13686;DHT22;6915;48.296;8.874;2023-12-20T14:00:44;3.80;99.90
13686;DHT22;6915;48.296;8.874;2023-12-20T14:03:11;3.80;99.90
13686;DHT22;6915;48.296;8.874;2023-12-20T14:05:38;3.90;99.90
13686;DHT22;6915;48.296;8.874;2023-12-20T14:08:06;4.00;99.90
13686;DHT22;6915;48.296;8.874;2023-12-20T14:10:33;4.10;99.90
13686;DHT22;6915;48.296;8.874;2023-12-20T14:13:00;4.10;99.90
13686;DHT22;6915;48.296;8.874;2023-12-20T14:15:26;4.10;99.90
13686;DHT22;6915;48.296;8.874;2023-12-20T14:17:55;4.00;99.90
13686;DHT22;6915;48.296;8.874;2023-12-20T14:20:22;4.00;99.90
13686;DHT22;6915;48.296;8.874;2023-12-20T14:22:48;3.90;99.90
13686;DHT22;6915;48.296;8.874;2023-12-20T14:25:16;3.80;99.90
13686;DHT22;6915;48.296;8.874;2023-12-20T14:27:44;3.90;99.90
13686;DHT22;6915;48.296;8.874;2023-12-20T14:30:11;3.80;99.90
13686;DHT22;6915;48.296;8.874;2023-12-20T14:32:39;3.80;99.90
13686;DHT22;6915;48.296;8.874;2023-12-20T14:35:08;3.80;99.90
13686;DHT22;6915;48.296;8.874;2023-12-20T14:37:35;3.90;99.90
13686;DHT22;6915;48.296;8.874;2023-12-20T14:40:05;3.70;99.90
13686;DHT22;6915;48.296;8.874;2023-12-20T14:42:36;3.70;99.90
13686;DHT22;6915;48.296;8.874;2023-12-20T14:45:03;3.90;99.90
13686;DHT22;6915;48.296;8.874;2023-12-20T14:47:30;3.80;99.90
13686;DHT22;6915;48.296;8.874;2023-12-20T14:49:57;3.80;99.90
13686;DHT22;6915;48.296;8.874;2023-12-20T14:52:25;3.80;99.90
13686;DHT22;6915;48.296;8.874;2023-12-20T14:54:52;3.80;99.90
13686;DHT22;6915;48.296;8.874;2023-12-20T14:57:19;3.80;99.90
13686;DHT22;6915;48.296;8.874;2023-12-20T14:59:46;3.80;99.90
13686;DHT22;6915;48.296;8.874;2023-12-20T15:02:13;3.70;99.90
13686;DHT22;6915;48.296;8.874;2023-12-20T15:04:41;3.70;99.90
13686;DHT22;6915;48.296;8.874;2023-12-20T15:07:07;3.70;99.90
13686;DHT22;6915;48.296;8.874;2023-12-20T15:09:36;3.70;99.90
13686;DHT22;6915;48.296;8.874;2023-12-20T15:12:03;3.70;99.90
13686;DHT22;6915;48.296;8.874;2023-12-20T15:14:30;3.70;99.90
13686;DHT22;6915;48.296;8.874;2023-12-20T15:16:57;3.70;99.90
13686;DHT22;6915;48.296;8.874;2023-12-20T15:19:24;3.60;99.90
13686;DHT22;6915;48.296;8.874;2023-12-20T15:21:51;3.60;99.90
13686;DHT22;6915;48.296;8.874;2023-12-20T15:24:18;3.60;99.90
13686;DHT22;6915;48.296;8.874;2023-12-20T15:26:54;3.60;99.90
13686;DHT22;6915;48.296;8.874;2023-12-20T15:29:21;3.50;99.90
13686;DHT22;6915;48.296;8.874;2023-12-20T15:31:48;3.50;99.90
13686;DHT22;6915;48.296;8.874;2023-12-20T15:34:15;3.50;99.90
13686;DHT22;6915;48.296;8.874;2023-12-20T15:36:42;3.50;99.90
13686;DHT22;6915;48.296;8.874;2023-12-20T15:39:09;3.50;99.90
13686;DHT22;6915;48.296;8.874;2023-12-20T15:41:39;3.40;99.90
13686;DHT22;6915;48.296;8.874;2023-12-20T15:44:08;3.40;99.90
13686;DHT22;6915;48.296;8.874;2023-12-20T15:46:35;3.50;99.90
13686;DHT22;6915;48.296;8.874;2023-12-20T15:49:02;3.50;99.90
13686;DHT22;6915;48.296;8.874;2023-12-20T15:51:29;3.40;99.90
13686;DHT22;6915;48.296;8.874;2023-12-20T15:53:55;3.40;99.90
13686;DHT22;6915;48.296;8.874;2023-12-20T15:56:23;3.60;99.90
13686;DHT22;6915;48.296;8.874;2023-12-20T15:58:50;3.40;99.90
13686;DHT22;6915;48.296;8.874;2023-12-20T16:01:21;3.30;99.90
13686;DHT22;6915;48.296;8.874;2023-12-20T16:03:48;3.30;99.90